createdAt,value
2023-04-16T00:00:42.440Z,31.40
2023-04-16T00:01:42.453Z,33.60
2023-04-16T00:02:42.511Z,32.40
2023-04-16T00:03:42.609Z,31.50
2023-04-16T00:04:42.466Z,33.30
2023-04-16T00:05:42.385Z,34.40
2023-04-16T00:06:42.366Z,34.30
2023-04-16T00:07:42.357Z,33.20
2023-04-16T00:08:42.344Z,32.50
2023-04-16T00:09:42.328Z,32.10
2023-04-16T00:10:42.333Z,33.00
2023-04-16T00:11:42.306Z,32.40
2023-04-16T00:12:42.302Z,34.30
2023-04-16T00:13:42.284Z,33.20
2023-04-16T00:14:42.284Z,32.60
2023-04-16T00:15:42.271Z,32.50
2023-04-16T00:16:42.304Z,32.90
2023-04-16T00:17:42.316Z,34.80
2023-04-16T00:18:42.241Z,34.20
2023-04-16T00:19:42.216Z,32.70
2023-04-16T00:20:42.234Z,32.90
2023-04-16T00:21:42.194Z,32.20
2023-04-16T00:22:42.193Z,34.90
2023-04-16T00:23:42.186Z,35.00
2023-04-16T00:24:42.171Z,34.20
2023-04-16T00:25:42.165Z,31.80
2023-04-16T00:26:42.151Z,33.10
2023-04-16T00:27:42.144Z,33.60
2023-04-16T00:28:42.144Z,35.90
2023-04-16T00:29:42.113Z,33.30
2023-04-16T00:30:42.141Z,33.00
2023-04-16T00:31:42.100Z,32.00
2023-04-16T00:32:42.145Z,32.50
2023-04-16T00:33:42.079Z,32.10
2023-04-16T00:34:42.066Z,31.50
2023-04-16T00:35:42.065Z,33.30
2023-04-16T00:36:42.052Z,31.70
2023-04-16T00:37:42.030Z,33.50
2023-04-16T00:38:42.033Z,33.80
2023-04-16T00:39:42.007Z,34.00
2023-04-16T00:40:42.013Z,35.00
2023-04-16T00:41:41.987Z,34.20
2023-04-16T00:42:41.978Z,35.20
2023-04-16T00:43:41.964Z,35.00
2023-04-16T00:44:41.959Z,35.30
2023-04-16T00:45:41.971Z,34.70
2023-04-16T00:46:41.986Z,36.20
2023-04-16T00:47:41.987Z,37.30
2023-04-16T00:48:41.924Z,36.10
2023-04-16T00:49:41.906Z,36.70
2023-04-16T00:50:41.909Z,39.10
2023-04-16T00:51:41.888Z,36.30
2023-04-16T00:52:41.881Z,37.30
2023-04-16T00:53:41.870Z,38.20
2023-04-16T00:54:41.860Z,36.60
2023-04-16T00:55:41.858Z,36.10
2023-04-16T00:56:41.834Z,37.90
2023-04-16T00:57:41.821Z,38.50
2023-04-16T00:58:41.815Z,35.90
2023-04-16T00:59:41.800Z,38.40
2023-04-16T01:00:41.789Z,36.10
2023-04-16T01:01:41.833Z,37.60
2023-04-16T01:02:41.833Z,38.10
2023-04-16T01:03:41.916Z,38.00
2023-04-16T01:04:41.757Z,37.60
2023-04-16T01:05:41.742Z,38.60
2023-04-16T01:06:41.747Z,39.20
2023-04-16T01:07:41.726Z,39.70
2023-04-16T01:08:41.736Z,40.70
2023-04-16T01:09:41.708Z,39.50
2023-04-16T01:10:41.698Z,39.30
2023-04-16T01:11:41.699Z,39.00
2023-04-16T01:12:41.674Z,41.70
2023-04-16T01:13:41.679Z,38.80
2023-04-16T01:14:41.661Z,37.70
2023-04-16T01:15:41.667Z,36.40
2023-04-16T01:16:41.650Z,37.20
2023-04-16T01:17:41.659Z,39.80
2023-04-16T01:18:41.650Z,37.70
2023-04-16T01:19:41.610Z,37.80
2023-04-16T01:20:41.613Z,37.40
2023-04-16T01:21:41.603Z,37.70
2023-04-16T01:22:41.591Z,37.60
2023-04-16T01:23:41.571Z,37.00
2023-04-16T01:24:41.561Z,36.60
2023-04-16T01:25:41.552Z,38.20
2023-04-16T01:26:41.554Z,40.40
2023-04-16T01:27:41.546Z,38.90
2023-04-16T01:28:41.520Z,40.00
2023-04-16T01:29:41.508Z,39.10
2023-04-16T01:30:41.516Z,40.50
2023-04-16T01:31:41.541Z,37.70
2023-04-16T01:32:41.510Z,37.60
2023-04-16T01:33:41.494Z,40.80
2023-04-16T01:34:41.472Z,36.60
2023-04-16T01:35:41.463Z,36.80
2023-04-16T01:36:41.456Z,37.50
2023-04-16T01:37:41.440Z,38.80
2023-04-16T01:38:41.426Z,39.00
2023-04-16T01:39:41.416Z,37.20
2023-04-16T01:40:41.408Z,38.60
2023-04-16T01:41:41.408Z,37.80
2023-04-16T01:42:41.383Z,39.20
2023-04-16T01:43:41.379Z,38.00
2023-04-16T01:44:41.364Z,35.30
2023-04-16T01:45:41.360Z,39.30
2023-04-16T01:46:41.395Z,38.00
2023-04-16T01:47:41.386Z,37.60
2023-04-16T01:48:41.330Z,38.20
2023-04-16T01:49:41.327Z,36.60
2023-04-16T01:50:41.310Z,37.50
2023-04-16T01:51:41.314Z,38.30
2023-04-16T01:52:41.296Z,38.40
2023-04-16T01:53:41.292Z,38.40
2023-04-16T01:54:41.274Z,38.30
2023-04-16T01:55:41.268Z,39.80
2023-04-16T01:56:41.257Z,40.10
2023-04-16T01:57:41.258Z,39.40
2023-04-16T01:58:41.243Z,38.30
2023-04-16T01:59:41.241Z,37.00
2023-04-16T02:00:41.300Z,39.50
2023-04-16T02:01:41.216Z,40.50
2023-04-16T02:02:41.354Z,39.90
2023-04-16T02:03:41.294Z,40.10
2023-04-16T02:04:41.183Z,39.70
2023-04-16T02:05:41.178Z,38.90
2023-04-16T02:06:41.159Z,40.70
2023-04-16T02:07:41.143Z,39.30
2023-04-16T02:08:41.139Z,38.40
2023-04-16T02:09:41.127Z,39.50
2023-04-16T02:10:41.111Z,40.00
2023-04-16T02:11:41.116Z,38.70
2023-04-16T02:12:41.101Z,39.60
2023-04-16T02:13:41.085Z,38.50
2023-04-16T02:14:41.069Z,38.80
2023-04-16T02:15:41.062Z,39.60
2023-04-16T02:16:41.095Z,40.90
2023-04-16T02:17:41.088Z,39.00
2023-04-16T02:18:41.029Z,38.60
2023-04-16T02:19:41.017Z,40.50
2023-04-16T02:20:41.013Z,39.80
2023-04-16T02:21:41.012Z,38.80
2023-04-16T02:22:40.984Z,40.40
2023-04-16T02:23:41.050Z,41.00
2023-04-16T02:24:40.969Z,40.50
2023-04-16T02:25:40.953Z,39.20
2023-04-16T02:26:40.956Z,39.30
2023-04-16T02:27:40.938Z,40.40
2023-04-16T02:28:40.936Z,39.40
2023-04-16T02:29:40.951Z,39.00
2023-04-16T02:30:42.039Z,40.40
2023-04-16T02:31:42.031Z,39.50
2023-04-16T02:32:42.045Z,39.70
2023-04-16T02:33:41.994Z,40.60
2023-04-16T02:34:41.983Z,39.20
2023-04-16T02:35:41.984Z,38.70
2023-04-16T02:36:41.989Z,39.30
2023-04-16T02:37:41.950Z,40.50
2023-04-16T02:38:41.952Z,39.80
2023-04-16T02:39:41.932Z,39.00
2023-04-16T02:40:41.922Z,39.30
2023-04-16T02:41:41.929Z,39.30
2023-04-16T02:42:41.905Z,40.20
2023-04-16T02:43:41.891Z,39.20
2023-04-16T02:44:41.894Z,39.80
2023-04-16T02:45:41.891Z,40.10
2023-04-16T02:46:41.881Z,38.50
2023-04-16T02:47:41.882Z,38.10
2023-04-16T02:48:41.848Z,38.90
2023-04-16T02:49:41.832Z,38.80
2023-04-16T02:50:41.828Z,37.90
2023-04-16T02:51:41.838Z,37.10
2023-04-16T02:52:41.812Z,40.10
2023-04-16T02:53:41.795Z,39.50
2023-04-16T02:54:41.793Z,40.20
2023-04-16T02:55:41.807Z,38.60
2023-04-16T02:56:41.786Z,39.30
2023-04-16T02:57:41.757Z,37.10
2023-04-16T02:58:41.748Z,36.70
2023-04-16T02:59:41.736Z,37.60
2023-04-16T03:00:41.725Z,38.50
2023-04-16T03:01:41.756Z,39.50
2023-04-16T03:02:41.801Z,40.10
2023-04-16T03:03:41.715Z,38.60
2023-04-16T03:04:41.844Z,38.50
2023-04-16T03:05:41.676Z,38.50
2023-04-16T03:06:41.668Z,38.40
2023-04-16T03:07:41.673Z,39.70
2023-04-16T03:08:41.660Z,37.20
2023-04-16T03:09:41.645Z,37.50
2023-04-16T03:10:41.630Z,36.70
2023-04-16T03:11:41.621Z,37.90
2023-04-16T03:12:41.634Z,39.00
2023-04-16T03:13:41.596Z,38.40
2023-04-16T03:14:41.601Z,38.80
2023-04-16T03:15:41.620Z,37.80
2023-04-16T03:16:41.588Z,39.20
2023-04-16T03:17:41.640Z,38.50
2023-04-16T03:18:41.550Z,38.10
2023-04-16T03:19:41.552Z,38.90
2023-04-16T03:20:41.533Z,38.20
2023-04-16T03:21:41.522Z,37.50
2023-04-16T03:22:41.527Z,38.70
2023-04-16T03:23:41.509Z,37.30
2023-04-16T03:24:41.498Z,35.90
2023-04-16T03:25:41.489Z,39.00
2023-04-16T03:26:41.472Z,39.70
2023-04-16T03:27:41.472Z,39.90
2023-04-16T03:28:41.455Z,40.20
2023-04-16T03:29:41.455Z,37.70
2023-04-16T03:30:41.441Z,36.80
2023-04-16T03:31:41.537Z,37.60
2023-04-16T03:32:41.580Z,36.70
2023-04-16T03:33:41.417Z,35.40
2023-04-16T03:34:41.411Z,36.00
2023-04-16T03:35:41.387Z,36.90
2023-04-16T03:36:41.374Z,35.00
2023-04-16T03:37:41.382Z,35.40
2023-04-16T03:38:41.358Z,35.20
2023-04-16T03:39:41.348Z,34.10
2023-04-16T03:40:41.343Z,34.70
2023-04-16T03:41:41.335Z,35.60
2023-04-16T03:42:41.346Z,37.20
2023-04-16T03:43:41.325Z,35.20
2023-04-16T03:44:41.303Z,34.00
2023-04-16T03:45:41.301Z,36.00
2023-04-16T03:46:41.346Z,39.20
2023-04-16T03:47:41.322Z,33.70
2023-04-16T03:48:41.273Z,36.80
2023-04-16T03:49:41.251Z,36.10
2023-04-16T03:50:41.236Z,36.00
2023-04-16T03:51:41.232Z,36.50
2023-04-16T03:52:41.239Z,39.30
2023-04-16T03:53:41.213Z,37.60
2023-04-16T03:54:41.203Z,38.00
2023-04-16T03:55:41.193Z,38.70
2023-04-16T03:56:41.183Z,37.40
2023-04-16T03:57:41.186Z,37.50
2023-04-16T03:58:41.170Z,35.80
2023-04-16T03:59:41.151Z,33.30
2023-04-16T04:00:41.159Z,33.30
2023-04-16T04:01:41.157Z,35.60
2023-04-16T04:02:41.285Z,36.10
2023-04-16T04:03:41.343Z,34.50
2023-04-16T04:04:41.284Z,35.10
2023-04-16T04:05:41.131Z,33.40
2023-04-16T04:06:41.085Z,33.00
2023-04-16T04:07:41.118Z,35.10
2023-04-16T04:08:42.068Z,35.70
2023-04-16T04:09:41.057Z,35.30
2023-04-16T04:10:41.066Z,33.20
2023-04-16T04:11:41.028Z,35.30
2023-04-16T04:12:41.035Z,34.20
2023-04-16T04:13:41.027Z,31.10
2023-04-16T04:14:40.999Z,29.10
2023-04-16T04:15:41.017Z,28.40
2023-04-16T04:16:41.190Z,28.70
2023-04-16T04:17:41.077Z,29.20
2023-04-16T04:18:41.726Z,27.70
2023-04-16T04:19:47.091Z,27.60
2023-04-16T04:20:42.972Z,27.10
2023-04-16T04:21:40.952Z,24.90
2023-04-16T04:22:40.952Z,27.30
2023-04-16T04:23:40.924Z,26.70
2023-04-16T04:24:40.913Z,26.40
2023-04-16T04:25:40.903Z,26.80
2023-04-16T04:26:40.916Z,27.40
2023-04-16T04:27:40.887Z,26.70
2023-04-16T04:28:40.885Z,26.90
2023-04-16T04:29:40.901Z,27.70
2023-04-16T04:30:40.847Z,27.90
2023-04-16T04:31:40.901Z,27.20
2023-04-16T04:32:40.929Z,26.00
2023-04-16T04:33:40.822Z,29.10
2023-04-16T04:34:40.822Z,27.30
2023-04-16T04:35:40.800Z,27.50
2023-04-16T04:36:40.798Z,29.30
2023-04-16T04:37:40.788Z,25.80
2023-04-16T04:38:40.765Z,25.30
2023-04-16T04:39:40.761Z,27.10
2023-04-16T04:40:40.745Z,25.40
2023-04-16T04:41:40.746Z,28.00
2023-04-16T04:42:40.748Z,25.50
2023-04-16T04:43:40.729Z,24.00
2023-04-16T04:44:40.705Z,22.60
2023-04-16T04:45:40.724Z,22.40
2023-04-16T04:46:40.709Z,21.20
2023-04-16T04:47:40.728Z,22.00
2023-04-16T04:48:40.661Z,22.90
2023-04-16T04:49:40.657Z,22.70
2023-04-16T04:50:40.650Z,20.40
2023-04-16T04:51:40.643Z,19.30
2023-04-16T04:52:40.622Z,20.10
2023-04-16T04:53:40.606Z,20.60
2023-04-16T04:54:40.607Z,20.20
2023-04-16T04:55:40.607Z,22.10
2023-04-16T04:56:40.597Z,22.20
2023-04-16T04:57:40.578Z,24.60
2023-04-16T04:58:40.581Z,26.10
2023-04-16T04:59:40.562Z,22.90
2023-04-16T05:00:40.553Z,23.10
2023-04-16T05:01:40.605Z,22.30
2023-04-16T05:02:40.601Z,23.10
2023-04-16T05:03:40.623Z,22.40
2023-04-16T05:04:40.555Z,21.10
2023-04-16T05:05:40.497Z,21.70
2023-04-16T05:06:40.499Z,25.80
2023-04-16T05:07:40.483Z,23.50
2023-04-16T05:08:40.477Z,22.30
2023-04-16T05:09:40.463Z,21.60
2023-04-16T05:10:40.451Z,20.50
2023-04-16T05:11:40.445Z,19.30
2023-04-16T05:12:40.451Z,20.60
2023-04-16T05:13:40.427Z,19.90
2023-04-16T05:14:40.443Z,20.80
2023-04-16T05:15:40.409Z,20.10
2023-04-16T05:16:40.412Z,20.20
2023-04-16T05:17:40.400Z,19.30
2023-04-16T05:18:40.380Z,17.00
2023-04-16T05:19:40.360Z,18.40
2023-04-16T05:20:40.366Z,20.00
2023-04-16T05:21:40.355Z,22.20
2023-04-16T05:22:40.338Z,19.80
2023-04-16T05:23:40.326Z,20.00
2023-04-16T05:24:40.324Z,21.00
2023-04-16T05:25:40.305Z,20.20
2023-04-16T05:26:40.293Z,20.90
2023-04-16T05:27:40.296Z,18.20
2023-04-16T05:28:40.271Z,18.30
2023-04-16T05:29:40.273Z,17.80
2023-04-16T05:30:40.385Z,17.50
2023-04-16T05:31:40.246Z,19.00
2023-04-16T05:32:40.268Z,18.70
2023-04-16T05:33:40.230Z,19.60
2023-04-16T05:34:40.214Z,18.30
2023-04-16T05:35:40.207Z,18.70
2023-04-16T05:36:40.194Z,19.10
2023-04-16T05:37:40.206Z,18.20
2023-04-16T05:38:40.174Z,20.00
2023-04-16T05:39:40.163Z,17.60
2023-04-16T05:40:40.160Z,19.30
2023-04-16T05:41:40.148Z,18.10
2023-04-16T05:42:40.147Z,19.10
2023-04-16T05:43:40.126Z,17.60
2023-04-16T05:44:40.114Z,17.60
2023-04-16T05:45:40.106Z,18.60
2023-04-16T05:46:40.110Z,17.80
2023-04-16T05:47:40.110Z,17.40
2023-04-16T05:48:40.087Z,16.60
2023-04-16T05:49:40.062Z,16.50
2023-04-16T05:50:40.065Z,16.50
2023-04-16T05:51:40.049Z,17.10
2023-04-16T05:52:40.061Z,16.60
2023-04-16T05:53:40.031Z,16.80
2023-04-16T05:54:40.031Z,18.20
2023-04-16T05:55:40.011Z,16.50
2023-04-16T05:56:40.010Z,17.90
2023-04-16T05:57:40.002Z,17.50
2023-04-16T05:58:39.980Z,17.00
2023-04-16T05:59:39.974Z,18.10
2023-04-16T06:00:39.959Z,17.60
2023-04-16T06:01:39.948Z,17.70
2023-04-16T06:02:40.060Z,16.80
2023-04-16T06:03:40.010Z,18.00
2023-04-16T06:04:39.923Z,18.00
2023-04-16T06:05:39.965Z,17.30
2023-04-16T06:06:39.900Z,17.20
2023-04-16T06:07:39.908Z,17.40
2023-04-16T06:08:39.879Z,17.90
2023-04-16T06:09:39.872Z,17.70
2023-04-16T06:10:39.865Z,19.00
2023-04-16T06:11:39.853Z,17.60
2023-04-16T06:12:39.862Z,18.20
2023-04-16T06:13:39.859Z,17.90
2023-04-16T06:14:39.843Z,17.70
2023-04-16T06:15:39.830Z,18.80
2023-04-16T06:16:39.808Z,17.10
2023-04-16T06:17:39.926Z,17.40
2023-04-16T06:18:39.789Z,18.00
2023-04-16T06:19:39.779Z,17.70
2023-04-16T06:20:39.764Z,16.90
2023-04-16T06:21:39.771Z,18.90
2023-04-16T06:22:39.768Z,18.40
2023-04-16T06:23:39.740Z,18.40
2023-04-16T06:24:39.814Z,19.10
2023-04-16T06:25:39.728Z,19.10
2023-04-16T06:26:39.924Z,17.80
2023-04-16T06:27:39.718Z,21.50
2023-04-16T06:28:39.681Z,20.30
2023-04-16T06:29:41.458Z,19.80
2023-04-16T06:30:41.421Z,21.30
2023-04-16T06:31:39.678Z,21.40
2023-04-16T06:32:40.289Z,21.70
2023-04-16T06:33:39.661Z,23.00
2023-04-16T06:34:39.745Z,22.30
2023-04-16T06:35:41.816Z,22.20
2023-04-16T06:36:41.253Z,21.00
2023-04-16T06:37:39.622Z,21.50
2023-04-16T06:38:39.589Z,20.70
2023-04-16T06:39:39.579Z,21.40
2023-04-16T06:40:42.225Z,20.70
2023-04-16T06:41:39.548Z,20.50
2023-04-16T06:42:41.445Z,20.60
2023-04-16T06:43:39.543Z,20.60
2023-04-16T06:44:39.525Z,20.40
2023-04-16T06:45:39.520Z,20.80
2023-04-16T06:46:39.558Z,20.90
2023-04-16T06:47:39.574Z,22.40
2023-04-16T06:48:39.504Z,21.30
2023-04-16T06:49:39.478Z,22.50
2023-04-16T06:50:39.468Z,22.80
2023-04-16T06:51:39.453Z,23.50
2023-04-16T06:52:39.445Z,23.10
2023-04-16T06:53:39.441Z,21.90
2023-04-16T06:54:39.422Z,22.70
2023-04-16T06:55:39.651Z,21.80
2023-04-16T06:56:40.405Z,22.10
2023-04-16T06:57:39.400Z,21.70
2023-04-16T06:58:39.394Z,22.20
2023-04-16T06:59:39.377Z,22.40
2023-04-16T07:00:39.395Z,22.30
2023-04-16T07:01:39.357Z,21.70
2023-04-16T07:02:39.499Z,22.70
2023-04-16T07:03:39.512Z,23.50
2023-04-16T07:04:41.884Z,23.70
2023-04-16T07:05:39.321Z,23.30
2023-04-16T07:06:39.305Z,23.50
2023-04-16T07:07:39.293Z,22.70
2023-04-16T07:08:39.910Z,22.70
2023-04-16T07:09:39.275Z,24.80
2023-04-16T07:10:39.258Z,22.40
2023-04-16T07:11:40.075Z,22.80
2023-04-16T07:12:42.737Z,27.20
2023-04-16T07:13:41.036Z,27.50
2023-04-16T07:14:39.212Z,24.70
2023-04-16T07:15:42.857Z,24.60
2023-04-16T07:16:39.203Z,23.80
2023-04-16T07:17:39.900Z,22.90
2023-04-16T07:18:39.189Z,23.60
2023-04-16T07:19:39.172Z,23.10
2023-04-16T07:20:40.357Z,24.20
2023-04-16T07:21:39.149Z,23.50
2023-04-16T07:22:39.143Z,22.40
2023-04-16T07:23:39.152Z,23.80
2023-04-16T07:24:39.121Z,25.70
2023-04-16T07:25:39.357Z,22.90
2023-04-16T07:26:39.135Z,21.40
2023-04-16T07:27:39.102Z,23.90
2023-04-16T07:28:39.140Z,22.90
2023-04-16T07:29:39.073Z,23.80
2023-04-16T07:30:39.071Z,25.00
2023-04-16T07:31:39.053Z,25.70
2023-04-16T07:32:39.091Z,22.80
2023-04-16T07:33:39.038Z,26.90
2023-04-16T07:34:39.016Z,25.60
2023-04-16T07:35:39.018Z,26.00
2023-04-16T07:36:38.993Z,25.10
2023-04-16T07:37:38.985Z,25.50
2023-04-16T07:38:38.982Z,26.70
2023-04-16T07:39:38.966Z,26.40
2023-04-16T07:40:38.958Z,25.20
2023-04-16T07:41:38.946Z,23.40
2023-04-16T07:42:38.933Z,27.70
2023-04-16T07:43:38.930Z,27.90
2023-04-16T07:44:38.902Z,24.60
2023-04-16T07:45:41.348Z,25.30
2023-04-16T07:46:46.834Z,24.60
2023-04-16T07:47:40.920Z,25.10
2023-04-16T07:48:38.886Z,24.90
2023-04-16T07:49:38.860Z,25.20
2023-04-16T07:50:38.862Z,25.20
2023-04-16T07:51:38.847Z,22.80
2023-04-16T07:52:38.842Z,23.20
2023-04-16T07:53:38.845Z,25.20
2023-04-16T07:54:38.827Z,25.70
2023-04-16T07:55:38.796Z,25.30
2023-04-16T07:56:38.799Z,25.10
2023-04-16T07:57:38.780Z,24.60
2023-04-16T07:58:38.777Z,25.00
2023-04-16T07:59:38.756Z,25.50
2023-04-16T08:00:38.770Z,22.60
2023-04-16T08:01:38.739Z,22.20
2023-04-16T08:02:38.845Z,23.40
2023-04-16T08:03:38.872Z,24.10
2023-04-16T08:04:38.975Z,21.40
2023-04-16T08:05:38.705Z,24.50
2023-04-16T08:06:38.691Z,24.10
2023-04-16T08:07:38.684Z,23.60
2023-04-16T08:08:38.692Z,30.80
2023-04-16T08:09:38.670Z,26.10
2023-04-16T08:10:38.652Z,24.90
2023-04-16T08:11:38.644Z,22.80
2023-04-16T08:12:38.632Z,21.70
2023-04-16T08:13:38.618Z,22.30
2023-04-16T08:14:38.622Z,21.30
2023-04-16T08:15:38.660Z,22.30
2023-04-16T08:16:38.589Z,22.50
2023-04-16T08:17:38.617Z,21.40
2023-04-16T08:18:38.593Z,22.20
2023-04-16T08:19:38.578Z,22.60
2023-04-16T08:20:38.567Z,22.70
2023-04-16T08:21:38.548Z,22.20
2023-04-16T08:22:38.532Z,21.80
2023-04-16T08:23:38.525Z,27.60
2023-04-16T08:24:38.531Z,28.70
2023-04-16T08:25:38.563Z,27.40
2023-04-16T08:26:38.501Z,27.70
2023-04-16T08:27:38.490Z,26.60
2023-04-16T08:28:38.498Z,25.60
2023-04-16T08:29:38.469Z,25.10
2023-04-16T08:30:38.448Z,23.80
2023-04-16T08:31:38.480Z,21.40
2023-04-16T08:32:38.516Z,23.10
2023-04-16T08:33:38.421Z,27.60
2023-04-16T08:34:38.422Z,27.60
2023-04-16T08:35:38.398Z,31.20
2023-04-16T08:36:38.381Z,26.00
2023-04-16T08:37:38.374Z,26.10
2023-04-16T08:38:38.378Z,23.70
2023-04-16T08:39:38.364Z,22.10
2023-04-16T08:40:38.346Z,21.40
2023-04-16T08:41:38.339Z,21.20
2023-04-16T08:42:38.325Z,28.10
2023-04-16T08:43:38.321Z,23.20
2023-04-16T08:44:38.324Z,25.10
2023-04-16T08:45:38.300Z,24.20
2023-04-16T08:46:38.350Z,25.00
2023-04-16T08:47:38.330Z,21.50
2023-04-16T08:48:38.262Z,21.70
2023-04-16T08:49:38.259Z,22.30
2023-04-16T08:50:38.240Z,23.60
2023-04-16T08:51:38.226Z,22.30
2023-04-16T08:52:38.223Z,23.40
2023-04-16T08:53:38.214Z,21.70
2023-04-16T08:54:38.208Z,22.30
2023-04-16T08:55:38.187Z,22.80
2023-04-16T08:56:38.180Z,22.40
2023-04-16T08:57:38.166Z,23.50
2023-04-16T08:58:38.162Z,23.40
2023-04-16T08:59:38.182Z,23.20
2023-04-16T09:00:38.148Z,22.50
2023-04-16T09:01:38.209Z,22.70
2023-04-16T09:02:38.360Z,22.40
2023-04-16T09:03:38.307Z,21.90
2023-04-16T09:04:38.260Z,21.30
2023-04-16T09:05:38.088Z,21.60
2023-04-16T09:06:38.073Z,21.20
2023-04-16T09:07:38.068Z,22.50
2023-04-16T09:08:38.059Z,20.00
2023-04-16T09:09:38.059Z,23.80
2023-04-16T09:10:38.033Z,22.00
2023-04-16T09:11:38.028Z,24.30
2023-04-16T09:12:38.016Z,21.00
2023-04-16T09:13:38.004Z,21.40
2023-04-16T09:14:38.009Z,23.00
2023-04-16T09:15:37.981Z,27.10
2023-04-16T09:16:38.056Z,24.00
2023-04-16T09:17:38.002Z,28.90
2023-04-16T09:18:37.958Z,26.60
2023-04-16T09:19:37.969Z,21.30
2023-04-16T09:20:37.936Z,20.10
2023-04-16T09:21:37.917Z,19.40
2023-04-16T09:22:37.914Z,20.50
2023-04-16T09:23:37.901Z,20.10
2023-04-16T09:24:37.905Z,21.50
2023-04-16T09:25:37.877Z,19.70
2023-04-16T09:26:37.865Z,19.30
2023-04-16T09:27:37.858Z,19.80
2023-04-16T09:28:37.842Z,20.10
2023-04-16T09:29:37.854Z,19.20
2023-04-16T09:30:37.829Z,21.20
2023-04-16T09:31:37.936Z,20.10
2023-04-16T09:32:37.861Z,19.50
2023-04-16T09:33:37.796Z,19.60
2023-04-16T09:34:37.806Z,19.40
2023-04-16T09:35:37.832Z,18.10
2023-04-16T09:36:37.769Z,20.20
2023-04-16T09:37:37.753Z,19.50
2023-04-16T09:38:37.747Z,18.80
2023-04-16T09:39:37.738Z,19.90
2023-04-16T09:40:37.742Z,21.00
2023-04-16T09:41:37.714Z,19.70
2023-04-16T09:42:37.710Z,19.70
2023-04-16T09:43:37.689Z,18.90
2023-04-16T09:44:37.689Z,20.10
2023-04-16T09:45:37.700Z,20.10
2023-04-16T09:46:37.656Z,21.00
2023-04-16T09:47:37.702Z,21.10
2023-04-16T09:48:37.641Z,19.80
2023-04-16T09:49:37.625Z,20.80
2023-04-16T09:50:37.643Z,20.70
2023-04-16T09:51:37.623Z,19.70
2023-04-16T09:52:37.605Z,19.10
2023-04-16T09:53:37.592Z,18.80
2023-04-16T09:54:37.578Z,19.80
2023-04-16T09:55:37.590Z,20.30
2023-04-16T09:56:37.559Z,19.00
2023-04-16T09:57:37.545Z,18.40
2023-04-16T09:58:37.536Z,18.80
2023-04-16T09:59:37.528Z,20.10
2023-04-16T10:00:42.330Z,19.40
2023-04-16T10:01:38.533Z,19.60
2023-04-16T10:02:37.566Z,19.30
2023-04-16T10:03:37.597Z,20.20
2023-04-16T10:04:37.536Z,21.00
2023-04-16T10:05:37.508Z,19.70
2023-04-16T10:06:37.466Z,19.20
2023-04-16T10:07:37.452Z,18.20
2023-04-16T10:08:37.439Z,16.80
2023-04-16T10:09:37.432Z,18.30
2023-04-16T10:10:37.483Z,18.60
2023-04-16T10:11:37.413Z,19.70
2023-04-16T10:12:37.400Z,18.10
2023-04-16T10:13:37.391Z,17.70
2023-04-16T10:14:37.383Z,18.10
2023-04-16T10:15:37.376Z,18.30
2023-04-16T10:16:37.407Z,18.20
2023-04-16T10:17:37.385Z,17.00
2023-04-16T10:18:37.344Z,18.20
2023-04-16T10:19:37.334Z,18.80
2023-04-16T10:20:37.327Z,19.30
2023-04-16T10:21:37.317Z,17.90
2023-04-16T10:22:37.299Z,15.40
2023-04-16T10:23:37.908Z,16.20
2023-04-16T10:24:38.278Z,15.70
2023-04-16T10:25:37.288Z,17.00
2023-04-16T10:26:37.256Z,16.50
2023-04-16T10:27:37.285Z,16.20
2023-04-16T10:28:37.232Z,16.20
2023-04-16T10:29:37.226Z,16.70
2023-04-16T10:30:37.258Z,14.60
2023-04-16T10:31:37.205Z,14.40
2023-04-16T10:32:37.234Z,15.60
2023-04-16T10:33:37.178Z,14.40
2023-04-16T10:34:37.182Z,13.90
2023-04-16T10:35:37.175Z,14.20
2023-04-16T10:36:37.151Z,15.50
2023-04-16T10:37:37.142Z,15.50
2023-04-16T10:38:37.153Z,15.30
2023-04-16T10:39:37.122Z,16.40
2023-04-16T10:40:37.122Z,13.60
2023-04-16T10:41:37.104Z,15.50
2023-04-16T10:42:37.086Z,13.40
2023-04-16T10:43:37.091Z,13.60
2023-04-16T10:44:37.070Z,14.00
2023-04-16T10:45:37.072Z,12.90
2023-04-16T10:46:37.095Z,13.10
2023-04-16T10:47:37.058Z,12.20
2023-04-16T10:48:48.811Z,13.70
2023-04-16T10:49:39.027Z,12.90
2023-04-16T10:50:37.192Z,13.80
2023-04-16T10:51:37.006Z,13.60
2023-04-16T10:52:36.994Z,14.50
2023-04-16T10:53:37.006Z,13.50
2023-04-16T10:54:36.972Z,12.30
2023-04-16T10:55:36.976Z,13.00
2023-04-16T10:56:36.953Z,12.70
2023-04-16T10:57:36.942Z,12.60
2023-04-16T10:58:36.933Z,11.60
2023-04-16T10:59:36.933Z,12.10
2023-04-16T11:00:36.917Z,11.80
2023-04-16T11:01:36.962Z,12.20
2023-04-16T11:02:37.004Z,11.30
2023-04-16T11:03:37.056Z,11.10
2023-04-16T11:04:36.986Z,11.00
2023-04-16T11:05:36.866Z,10.80
2023-04-16T11:06:36.881Z,11.60
2023-04-16T11:07:36.845Z,10.60
2023-04-16T11:08:47.530Z,11.20
2023-04-16T11:09:39.929Z,11.80
2023-04-16T11:10:36.852Z,10.10
2023-04-16T11:11:36.843Z,10.80
2023-04-16T11:12:36.860Z,10.70
2023-04-16T11:13:36.810Z,10.30
2023-04-16T11:14:36.780Z,10.20
2023-04-16T11:15:36.795Z,11.70
2023-04-16T11:16:36.765Z,10.70
2023-04-16T11:17:36.770Z,11.20
2023-04-16T11:18:36.749Z,11.10
2023-04-16T11:19:36.750Z,10.60
2023-04-16T11:20:36.730Z,11.00
2023-04-16T11:21:36.715Z,13.40
2023-04-16T11:22:36.702Z,13.10
2023-04-16T11:23:36.794Z,12.80
2023-04-16T11:24:36.933Z,9.90
2023-04-16T11:25:37.536Z,9.10
2023-04-16T11:26:36.712Z,11.10
2023-04-16T11:27:36.655Z,11.90
2023-04-16T11:28:36.663Z,10.30
2023-04-16T11:29:36.628Z,11.90
2023-04-16T11:30:37.440Z,12.10
2023-04-16T11:31:36.678Z,11.00
2023-04-16T11:32:36.630Z,9.70
2023-04-16T11:33:36.593Z,15.60
2023-04-16T11:34:46.031Z,16.40
2023-04-16T11:35:54.542Z,9.30
2023-04-16T11:36:36.599Z,11.00
2023-04-16T11:37:36.628Z,14.80
2023-04-16T11:38:36.574Z,10.60
2023-04-16T11:39:36.571Z,10.60
2023-04-16T11:40:36.562Z,10.10
2023-04-16T11:41:36.528Z,10.20
2023-04-16T11:42:36.559Z,9.90
2023-04-16T11:43:36.520Z,9.10
2023-04-16T11:44:36.502Z,8.60
2023-04-16T11:45:36.500Z,9.70
2023-04-16T11:46:36.514Z,11.00
2023-04-16T11:47:36.479Z,9.90
2023-04-16T11:48:36.451Z,10.10
2023-04-16T11:49:36.447Z,9.40
2023-04-16T11:50:36.445Z,10.60
2023-04-16T11:51:36.448Z,10.20
2023-04-16T11:52:36.462Z,11.70
2023-04-16T11:53:36.418Z,8.90
2023-04-16T11:54:36.439Z,9.20
2023-04-16T11:55:36.402Z,8.90
2023-04-16T11:56:36.407Z,9.80
2023-04-16T11:57:36.393Z,9.20
2023-04-16T11:58:36.385Z,10.20
2023-04-16T11:59:37.357Z,8.00
2023-04-16T12:00:37.376Z,9.20
2023-04-16T12:01:36.365Z,8.80
2023-04-16T12:02:36.471Z,8.60
2023-04-16T12:03:36.716Z,11.20
2023-04-16T12:04:36.504Z,10.00
2023-04-16T12:05:36.326Z,9.30
2023-04-16T12:06:36.287Z,9.10
2023-04-16T12:07:36.293Z,9.10
2023-04-16T12:08:36.278Z,9.20
2023-04-16T12:09:39.350Z,9.60
2023-04-16T12:10:36.276Z,8.70
2023-04-16T12:11:36.254Z,9.20
2023-04-16T12:12:36.256Z,9.40
2023-04-16T12:13:36.227Z,8.40
2023-04-16T12:14:36.216Z,8.80
2023-04-16T12:15:36.305Z,9.50
2023-04-16T12:16:36.222Z,10.60
2023-04-16T12:17:36.234Z,10.40
2023-04-16T12:18:36.188Z,12.20
2023-04-16T12:19:36.196Z,13.20
2023-04-16T12:20:36.189Z,10.20
2023-04-16T12:21:36.158Z,10.30
2023-04-16T12:22:36.984Z,9.30
2023-04-16T12:23:37.140Z,9.80
2023-04-16T12:24:36.983Z,9.80
2023-04-16T12:25:36.130Z,9.70
2023-04-16T12:26:36.094Z,10.10
2023-04-16T12:27:36.163Z,9.90
2023-04-16T12:28:36.115Z,11.30
2023-04-16T12:29:36.064Z,11.40
2023-04-16T12:30:36.125Z,11.60
2023-04-16T12:31:36.059Z,11.00
2023-04-16T12:32:36.267Z,11.10
2023-04-16T12:33:36.071Z,11.80
2023-04-16T12:34:48.702Z,11.40
2023-04-16T12:35:37.057Z,11.30
2023-04-16T12:36:36.070Z,12.20
2023-04-16T12:37:36.028Z,11.60
2023-04-16T12:38:36.016Z,11.70
2023-04-16T12:39:36.008Z,11.40
2023-04-16T12:40:35.991Z,11.20
2023-04-16T12:41:36.021Z,11.20
2023-04-16T12:42:36.018Z,11.00
2023-04-16T12:43:35.978Z,12.00
2023-04-16T12:44:36.018Z,11.90
2023-04-16T12:45:35.951Z,11.50
2023-04-16T12:46:35.997Z,12.50
2023-04-16T12:47:36.027Z,12.20
2023-04-16T12:48:35.988Z,12.20
2023-04-16T12:49:35.967Z,11.20
2023-04-16T12:50:35.943Z,11.30
2023-04-16T12:51:35.916Z,11.70
2023-04-16T12:52:35.914Z,11.90
2023-04-16T12:53:35.894Z,11.80